Time;durP1;ratioP1;P1;durP2;ratioP2;P2;SDS_P1;SDS_P2;PMS_P1;PMS_P2;Temp;Humidity;BMP_temperature;BMP_pressure;BME280_temperature;BME280_humidity;BME280_pressure;Samples;Min_cycle;Max_cycle;Signal;HPM_P1;HPM_P2
2023/12/21 00:00:45;;;;;;;7.32;3.55;;;;;;;4.05;85.43;97597.53;5053192;28;20029;-56
2023/12/21 00:03:11;;;;;;;8.02;4.28;;;;;;;3.96;86.64;97593.63;5075325;28;20622;-54
2023/12/21 00:05:37;;;;;;;10.85;3.85;;;;;;;3.99;87.25;97590.09;5075826;28;20059;-55
2023/12/21 00:08:03;;;;;;;10.43;3.55;;;;;;;3.97;87.28;97594.47;5074333;28;20044;-57
2023/12/21 00:10:28;;;;;;;7.13;3.65;;;;;;;3.80;88.31;97583.16;5074037;28;20522;-56
2023/12/21 00:12:54;;;;;;;8.50;3.83;;;;;;;3.76;89.04;97580.78;5076164;28;20043;-53
2023/12/21 00:15:20;;;;;;;9.60;4.18;;;;;;;3.79;89.21;97584.03;5059505;28;20047;-56
2023/12/21 00:17:46;;;;;;;7.97;3.20;;;;;;;3.68;89.82;97577.66;5075812;28;20040;-56
2023/12/21 00:20:12;;;;;;;7.80;3.22;;;;;;;3.60;90.08;97562.56;5073609;28;20097;-57
2023/12/21 00:22:38;;;;;;;7.95;4.03;;;;;;;3.60;90.64;97562.56;5078864;28;20131;-58
2023/12/21 00:25:04;;;;;;;7.88;3.28;;;;;;;3.65;91.13;97560.66;5073157;28;20051;-56
2023/12/21 00:27:30;;;;;;;7.03;3.78;;;;;;;3.66;91.01;97556.34;5072457;28;20090;-57
2023/12/21 00:29:56;;;;;;;5.50;2.70;;;;;;;3.76;91.66;97557.66;5073833;28;20044;-56
2023/12/21 00:32:22;;;;;;;6.20;3.10;;;;;;;3.66;91.08;97526.34;5075084;28;20913;-55
2023/12/21 00:34:50;;;;;;;6.03;3.25;;;;;;;3.89;91.50;97540.81;5077354;28;20127;-56
2023/12/21 00:37:16;;;;;;;6.25;3.40;;;;;;;3.86;92.02;97528.09;5078576;28;20819;-55
2023/12/21 00:39:42;;;;;;;5.90;3.10;;;;;;;3.92;92.13;97530.41;5064977;28;20044;-56
2023/12/21 00:42:08;;;;;;;5.25;2.80;;;;;;;3.63;92.07;97480.22;5074240;28;20051;-58
2023/12/21 00:44:34;;;;;;;6.50;3.22;;;;;;;3.87;92.28;97516.91;5072143;28;20047;-56
2023/12/21 00:47:02;;;;;;;5.63;3.03;;;;;;;3.84;92.18;97510.16;5055017;28;20542;-57
2023/12/21 00:49:28;;;;;;;5.63;2.78;;;;;;;3.76;92.67;97507.09;5069948;28;20504;-55
2023/12/21 00:51:54;;;;;;;5.80;2.85;;;;;;;3.78;93.22;97505.28;5072961;28;20119;-52
2023/12/21 00:54:20;;;;;;;5.55;2.78;;;;;;;3.78;93.29;97499.28;5073638;28;20197;-55
2023/12/21 00:56:46;;;;;;;6.82;2.95;;;;;;;3.80;93.34;97487.22;5078388;28;20084;-53
2023/12/21 00:59:12;;;;;;;6.70;2.97;;;;;;;3.80;93.80;97476.94;5082187;28;20173;-52
2023/12/21 01:01:38;;;;;;;5.72;2.83;;;;;;;3.80;93.73;97467.50;5073055;28;20527;-54
2023/12/21 01:04:04;;;;;;;5.18;2.72;;;;;;;3.77;93.81;97472.75;5070130;28;20554;-53
2023/12/21 01:06:30;;;;;;;7.20;2.88;;;;;;;3.74;94.39;97469.50;5072206;28;20108;-54
2023/12/21 01:08:55;;;;;;;5.28;3.13;;;;;;;3.61;94.51;97453.75;5073608;28;20447;-55
2023/12/21 01:11:21;;;;;;;5.65;2.83;;;;;;;3.78;94.19;97464.16;5066885;28;20181;-58
2023/12/21 01:13:47;;;;;;;5.35;3.17;;;;;;;3.80;94.39;97464.09;5066615;28;20500;-55
2023/12/21 01:16:15;;;;;;;4.72;2.55;;;;;;;3.57;94.64;97434.25;5075486;28;20036;-55
2023/12/21 01:18:41;;;;;;;5.70;3.20;;;;;;;3.84;94.75;97452.78;5073055;28;20129;-56
2023/12/21 01:21:07;;;;;;;5.93;2.90;;;;;;;3.83;94.57;97451.94;5072919;28;20127;-56
2023/12/21 01:23:33;;;;;;;7.53;3.08;;;;;;;3.84;94.45;97447.66;5071313;28;20586;-57
2023/12/21 01:25:59;;;;;;;4.47;2.50;;;;;;;3.65;94.66;97410.81;5072445;28;20511;-57
2023/12/21 01:28:24;;;;;;;5.68;2.95;;;;;;;3.56;94.82;97408.63;5070104;28;20044;-60
2023/12/21 01:30:50;;;;;;;4.82;2.90;;;;;;;3.62;94.97;97409.19;5071018;28;20074;-57
2023/12/21 01:33:16;;;;;;;6.25;3.17;;;;;;;3.82;94.57;97428.91;5069825;28;20499;-56
2023/12/21 01:35:42;;;;;;;6.25;2.75;;;;;;;3.72;94.52;97400.19;5070193;28;20040;-55
2023/12/21 01:38:08;;;;;;;4.90;2.65;;;;;;;3.61;94.25;97371.53;5071006;28;20047;-55
2023/12/21 01:40:34;;;;;;;5.28;2.78;;;;;;;3.62;94.19;97378.34;5072871;28;20045;-57
2023/12/21 01:43:01;;;;;;;7.07;3.28;;;;;;;3.59;93.80;97367.41;5077392;28;20067;-57
2023/12/21 01:45:26;;;;;;;6.30;3.45;;;;;;;3.87;94.02;97395.28;5075281;28;20151;-56
2023/12/21 01:47:53;;;;;;;5.72;2.53;;;;;;;3.89;93.31;97398.59;5072570;28;20611;-56
2023/12/21 01:50:19;;;;;;;6.47;3.28;;;;;;;3.90;93.60;97402.84;5074386;28;20457;-57
2023/12/21 01:52:45;;;;;;;6.43;3.50;;;;;;;3.91;93.13;97386.53;5055416;28;20503;-57
2023/12/21 01:55:13;;;;;;;5.78;3.38;;;;;;;3.93;93.31;97380.41;5070366;28;20052;-57
2023/12/21 01:57:39;;;;;;;4.50;2.60;;;;;;;3.95;92.93;97370.91;5072944;28;20040;-56
2023/12/21 02:00:06;;;;;;;5.88;3.45;;;;;;;3.94;92.97;97371.81;5072653;28;20062;-57
2023/12/21 02:02:32;;;;;;;5.53;2.90;;;;;;;3.98;93.19;97369.94;5079443;28;20040;-56
2023/12/21 02:04:58;;;;;;;4.82;2.50;;;;;;;3.96;92.71;97364.03;5073116;28;20046;-52
2023/12/21 02:07:24;;;;;;;5.30;2.40;;;;;;;4.03;92.68;97370.56;5070712;28;20032;-56
2023/12/21 02:09:50;;;;;;;4.20;2.40;;;;;;;4.04;92.55;97367.91;5071536;28;20044;-56
2023/12/21 02:12:16;;;;;;;3.80;2.13;;;;;;;4.04;92.19;97349.91;5076710;28;20040;-58
2023/12/21 02:14:42;;;;;;;5.22;2.55;;;;;;;3.98;92.14;97350.19;5075835;28;20037;-54
2023/12/21 02:17:20;;;;;;;2.90;1.80;;;;;;;3.91;91.82;97337.72;5059022;28;20040;-56
2023/12/21 02:19:47;;;;;;;3.72;1.90;;;;;;;3.90;91.73;97339.44;5062947;28;20036;-56
2023/12/21 02:22:15;;;;;;;3.60;1.90;;;;;;;3.87;91.51;97333.63;5074487;28;20052;-54
2023/12/21 02:24:41;;;;;;;4.00;2.08;;;;;;;3.81;91.53;97327.00;5082295;28;20072;-54
2023/12/21 02:27:07;;;;;;;5.07;1.90;;;;;;;3.87;92.10;97331.03;5082537;28;20072;-52
2023/12/21 02:29:33;;;;;;;3.58;1.60;;;;;;;3.87;91.40;97334.44;5082098;28;20103;-56
2023/12/21 02:31:59;;;;;;;3.15;1.58;;;;;;;3.86;91.31;97324.22;5076995;28;20044;-54
2023/12/21 02:34:24;;;;;;;1.88;1.10;;;;;;;3.51;91.00;97279.59;5070334;28;20040;-54
2023/12/21 02:36:50;;;;;;;4.70;1.73;;;;;;;3.52;90.90;97312.03;5080772;28;20182;-54
2023/12/21 02:39:16;;;;;;;2.78;1.63;;;;;;;3.38;91.26;97315.22;5078668;28;20051;-56
2023/12/21 02:41:42;;;;;;;2.60;1.50;;;;;;;3.20;91.78;97292.91;5076401;28;20044;-54
2023/12/21 02:44:08;;;;;;;2.53;1.48;;;;;;;3.33;91.77;97322.31;5072440;28;20397;-54
2023/12/21 02:46:34;;;;;;;2.72;1.42;;;;;;;3.39;92.18;97314.34;5083021;28;20036;-53
2023/12/21 02:49:00;;;;;;;2.88;1.17;;;;;;;3.31;92.24;97319.78;5057954;28;20459;-52
2023/12/21 02:51:26;;;;;;;4.70;1.60;;;;;;;3.25;91.99;97324.34;5073384;28;20078;-51
2023/12/21 02:53:51;;;;;;;2.22;1.40;;;;;;;3.24;92.37;97318.41;5085538;28;20511;-50
2023/12/21 02:56:17;;;;;;;2.25;1.70;;;;;;;3.18;92.56;97307.56;5077455;28;20204;-55
2023/12/21 02:58:43;;;;;;;1.95;1.20;;;;;;;3.26;92.57;97310.63;5076426;28;20048;-51
2023/12/21 03:01:09;;;;;;;2.28;1.17;;;;;;;3.23;92.83;97303.91;5074966;28;20527;-55
2023/12/21 03:03:35;;;;;;;2.30;1.17;;;;;;;3.16;93.31;97317.03;5077771;28;20044;-57
2023/12/21 03:06:01;;;;;;;2.22;1.10;;;;;;;2.68;93.43;97233.53;5072853;28;20045;-54
2023/12/21 03:08:26;;;;;;;3.80;1.50;;;;;;;3.08;94.07;97284.03;5080694;28;20079;-53
2023/12/21 03:10:52;;;;;;;2.20;1.25;;;;;;;3.23;94.07;97303.06;5076965;28;20090;-54
2023/12/21 03:13:18;;;;;;;3.63;1.63;;;;;;;3.01;93.67;97261.25;5083006;28;20039;-56
2023/12/21 03:15:44;;;;;;;2.67;1.50;;;;;;;2.94;93.62;97232.44;5077164;28;20092;-55
2023/12/21 03:18:11;;;;;;;2.05;1.00;;;;;;;2.96;93.82;97244.31;5080736;28;20036;-54
2023/12/21 03:20:36;;;;;;;2.75;1.10;;;;;;;3.24;94.01;97274.75;5074373;28;20086;-55
2023/12/21 03:23:02;;;;;;;3.08;1.40;;;;;;;3.12;93.45;97248.78;5073988;28;20840;-57
2023/12/21 03:25:28;;;;;;;1.10;0.90;;;;;;;3.29;93.20;97260.00;5073411;28;20080;-60
2023/12/21 03:27:54;;;;;;;2.97;1.25;;;;;;;2.85;93.39;97230.28;5073775;28;20086;-58
2023/12/21 03:30:20;;;;;;;1.70;1.00;;;;;;;3.12;93.59;97270.16;5075342;28;20032;-57
2023/12/21 03:32:46;;;;;;;2.45;0.90;;;;;;;3.03;93.32;97278.25;5074300;28;20044;-56
2023/12/21 03:35:12;;;;;;;2.05;1.25;;;;;;;2.98;93.63;97275.84;5075688;28;20040;-57
2023/12/21 03:37:38;;;;;;;3.47;1.30;;;;;;;2.79;94.08;97228.81;5079708;28;20036;-53
2023/12/21 03:40:06;;;;;;;2.03;1.02;;;;;;;2.87;93.73;97239.59;5067553;28;20032;-55
2023/12/21 03:42:32;;;;;;;1.50;1.10;;;;;;;2.99;93.69;97267.25;5064481;28;20045;-55
2023/12/21 03:44:58;;;;;;;2.50;1.45;;;;;;;2.93;94.51;97272.66;5073962;28;20100;-56
2023/12/21 03:47:24;;;;;;;2.63;1.20;;;;;;;2.99;94.84;97277.53;5066050;28;20043;-55
2023/12/21 03:49:50;;;;;;;1.55;1.10;;;;;;;2.91;95.04;97284.72;5070696;28;20509;-55
2023/12/21 03:52:16;;;;;;;1.98;1.17;;;;;;;2.82;95.18;97274.88;5074664;28;20166;-53
2023/12/21 03:54:42;;;;;;;2.22;1.13;;;;;;;2.76;95.40;97275.13;5072428;28;20435;-56
2023/12/21 03:57:08;;;;;;;2.22;1.20;;;;;;;2.70;95.31;97254.84;5072588;28;20044;-57
2023/12/21 03:59:34;;;;;;;2.63;1.17;;;;;;;2.55;95.71;97245.22;5078690;28;20047;-55
2023/12/21 04:02:01;;;;;;;2.40;1.17;;;;;;;2.63;96.51;97271.38;5074997;28;20603;-55
2023/12/21 04:04:27;;;;;;;3.42;1.75;;;;;;;2.66;97.20;97262.75;5073407;28;20044;-56
2023/12/21 04:06:53;;;;;;;1.73;1.30;;;;;;;2.75;97.13;97275.16;5074276;28;20063;-52
2023/12/21 04:09:19;;;;;;;2.33;1.45;;;;;;;2.60;97.27;97263.00;5073166;28;20051;-57
2023/12/21 04:11:45;;;;;;;2.75;1.17;;;;;;;2.42;97.77;97226.09;5050755;28;20036;-57
2023/12/21 04:14:10;;;;;;;3.90;1.40;;;;;;;2.60;97.91;97266.41;5079642;28;20046;-55
2023/12/21 04:16:36;;;;;;;1.55;1.13;;;;;;;2.36;98.77;97231.47;5071673;28;20040;-55
2023/12/21 04:19:03;;;;;;;1.42;1.13;;;;;;;2.27;99.13;97222.44;5054545;28;20054;-57
2023/12/21 04:21:30;;;;;;;2.45;1.48;;;;;;;2.46;99.58;97256.69;5074434;28;20036;-53
2023/12/21 04:23:55;;;;;;;2.58;1.33;;;;;;;2.44;100.00;97258.50;5073242;28;20090;-56
2023/12/21 04:26:22;;;;;;;2.15;1.10;;;;;;;2.20;100.00;97213.31;5073842;28;20047;-54
2023/12/21 04:28:48;;;;;;;1.13;0.85;;;;;;;2.16;100.00;97222.03;5073161;28;20503;-55
2023/12/21 04:31:19;;;;;;;2.63;1.30;;;;;;;2.36;100.00;97254.56;5078887;28;20048;-56
2023/12/21 04:33:46;;;;;;;4.13;1.00;;;;;;;2.37;100.00;97261.34;5089937;28;20091;-55
2023/12/21 04:36:13;;;;;;;0.93;0.68;;;;;;;2.08;100.00;97230.06;5071537;28;20113;-57
2023/12/21 04:38:39;;;;;;;3.22;1.30;;;;;;;2.30;100.00;97265.91;5071793;28;20032;-53
2023/12/21 04:41:04;;;;;;;4.57;1.30;;;;;;;2.05;100.00;97230.16;5072713;28;20047;-55
2023/12/21 04:43:30;;;;;;;3.33;1.17;;;;;;;2.30;100.00;97262.53;5073800;28;20040;-56
2023/12/21 04:45:56;;;;;;;1.88;1.25;;;;;;;2.35;100.00;97271.69;5079870;28;20047;-57
2023/12/21 04:48:22;;;;;;;5.95;1.85;;;;;;;2.19;100.00;97242.44;5074097;28;20622;-53
2023/12/21 04:50:48;;;;;;;4.28;1.60;;;;;;;2.33;100.00;97263.22;5054133;28;20046;-59
2023/12/21 04:53:14;;;;;;;4.80;1.55;;;;;;;2.11;100.00;97242.72;5073822;28;20062;-53
2023/12/21 04:55:40;;;;;;;3.78;1.33;;;;;;;2.24;100.00;97273.00;5070345;28;20063;-53
2023/12/21 04:58:06;;;;;;;3.67;1.63;;;;;;;2.18;100.00;97268.13;5072612;28;20040;-56
2023/12/21 05:00:31;;;;;;;8.35;2.33;;;;;;;2.14;100.00;97264.84;5055266;28;20054;-53
2023/12/21 05:02:57;;;;;;;4.25;1.73;;;;;;;2.08;100.00;97273.63;5072576;28;20389;-56
2023/12/21 05:05:23;;;;;;;6.80;2.40;;;;;;;2.13;100.00;97271.72;5080523;28;20149;-55
2023/12/21 05:07:49;;;;;;;5.03;2.22;;;;;;;2.15;100.00;97268.25;5065570;28;20050;-54
2023/12/21 05:10:15;;;;;;;5.95;1.35;;;;;;;2.06;100.00;97252.34;5073848;28;20044;-51
2023/12/21 05:12:41;;;;;;;7.68;2.08;;;;;;;2.19;100.00;97275.75;5072736;28;20052;-57
2023/12/21 05:15:07;;;;;;;3.83;2.08;;;;;;;2.11;100.00;97263.22;5076939;28;20036;-53
2023/12/21 05:17:34;;;;;;;5.85;1.85;;;;;;;2.17;100.00;97276.69;5077643;28;20044;-57
2023/12/21 05:20:01;;;;;;;2.70;1.33;;;;;;;2.12;100.00;97274.31;5085837;28;20067;-53
2023/12/21 05:22:26;;;;;;;7.60;1.75;;;;;;;2.13;100.00;97273.44;5066388;28;20040;-57
2023/12/21 05:24:52;;;;;;;2.42;1.95;;;;;;;2.19;100.00;97278.31;5073040;28;20056;-56
2023/12/21 05:27:18;;;;;;;5.88;2.25;;;;;;;2.17;100.00;97277.53;5068047;28;20107;-57
2023/12/21 05:29:44;;;;;;;2.58;1.27;;;;;;;1.86;100.00;97233.50;5072864;28;20583;-55
2023/12/21 05:32:09;;;;;;;2.70;1.52;;;;;;;2.08;100.00;97272.78;5073031;28;20539;-57
2023/12/21 05:34:36;;;;;;;5.63;1.85;;;;;;;1.93;100.00;97248.59;5072014;28;20504;-54
2023/12/21 05:37:01;;;;;;;7.72;2.05;;;;;;;2.06;100.00;97275.38;5070937;28;20071;-54
2023/12/21 05:39:27;;;;;;;4.25;2.17;;;;;;;2.11;100.00;97276.03;5071695;28;20146;-54
2023/12/21 05:41:53;;;;;;;2.13;1.30;;;;;;;2.11;100.00;97277.78;5064370;28;20607;-54
2023/12/21 05:44:19;;;;;;;2.70;1.08;;;;;;;1.84;100.00;97242.97;5072319;28;20058;-54
2023/12/21 05:46:45;;;;;;;2.50;1.30;;;;;;;2.11;100.00;97286.28;5070321;28;20040;-58
2023/12/21 05:49:11;;;;;;;5.15;1.25;;;;;;;2.10;100.00;97273.53;5070032;28;20083;-52
2023/12/21 05:51:37;;;;;;;6.88;2.13;;;;;;;2.10;100.00;97287.19;5072104;28;20064;-55
2023/12/21 05:54:03;;;;;;;3.17;1.50;;;;;;;2.03;100.00;97282.38;5072920;28;20472;-59
2023/12/21 05:56:35;;;;;;;4.55;1.50;;;;;;;1.57;100.00;97214.16;5079897;28;20055;-53
2023/12/21 05:59:01;;;;;;;2.83;1.38;;;;;;;2.07;100.00;97295.00;5083073;28;20733;-59
2023/12/21 06:01:27;;;;;;;3.75;1.55;;;;;;;2.06;100.00;97290.75;5063056;28;20135;-58
2023/12/21 06:03:53;;;;;;;3.47;1.38;;;;;;;2.09;100.00;97305.19;5078709;28;20058;-57
2023/12/21 06:06:19;;;;;;;4.77;2.17;;;;;;;2.09;100.00;97302.63;5083417;28;20041;-60
2023/12/21 06:08:45;;;;;;;3.90;1.20;;;;;;;2.10;100.00;97314.53;5081493;28;20640;-58
2023/12/21 06:11:10;;;;;;;4.43;1.58;;;;;;;2.08;100.00;97319.75;5078990;28;20044;-60
2023/12/21 06:13:36;;;;;;;6.03;1.35;;;;;;;1.88;100.00;97283.81;5079569;28;20040;-57
2023/12/21 06:16:02;;;;;;;5.13;2.00;;;;;;;2.13;100.00;97322.13;5083435;28;20044;-59
2023/12/21 06:18:29;;;;;;;1.45;0.98;;;;;;;1.67;100.00;97257.25;5078969;28;20036;-60
2023/12/21 06:20:55;;;;;;;2.80;1.23;;;;;;;2.11;100.00;97316.22;5083730;28;20444;-60
2023/12/21 06:23:21;;;;;;;3.63;1.20;;;;;;;1.94;100.00;97283.53;5062658;28;20047;-61
2023/12/21 06:25:47;;;;;;;2.65;1.40;;;;;;;2.17;100.00;97328.78;5077034;28;20507;-61
2023/12/21 06:28:12;;;;;;;3.40;1.58;;;;;;;2.21;100.00;97324.38;5085055;28;20067;-60
2023/12/21 06:30:38;;;;;;;2.72;1.45;;;;;;;1.94;100.00;97278.41;5081080;28;20070;-60
2023/12/21 06:33:05;;;;;;;4.45;1.35;;;;;;;2.30;100.00;97340.25;5072508;28;20133;-62
2023/12/21 06:35:30;;;;;;;3.30;1.42;;;;;;;2.23;100.00;97330.28;5078416;28;20507;-57
2023/12/21 06:37:57;;;;;;;7.10;1.50;;;;;;;2.26;100.00;97327.59;5080240;28;20044;-54
2023/12/21 06:40:22;;;;;;;3.83;1.40;;;;;;;2.26;100.00;97336.13;5080313;28;20628;-60
2023/12/21 06:42:48;;;;;;;3.83;1.42;;;;;;;2.27;100.00;97331.81;5071977;28;20101;-59
2023/12/21 06:45:14;;;;;;;1.85;0.93;;;;;;;2.24;100.00;97321.72;5080084;28;20071;-58
2023/12/21 06:47:40;;;;;;;4.63;1.45;;;;;;;2.30;100.00;97324.88;5079165;28;20043;-56
2023/12/21 06:50:07;;;;;;;2.67;1.20;;;;;;;2.34;100.00;97331.53;5084051;28;20485;-52
2023/12/21 06:52:33;;;;;;;2.42;1.25;;;;;;;2.39;100.00;97329.63;5072413;28;20127;-58
2023/12/21 06:54:58;;;;;;;4.55;1.40;;;;;;;2.49;100.00;97335.22;5081812;28;20135;-59
2023/12/21 06:57:24;;;;;;;3.33;1.30;;;;;;;2.44;100.00;97339.69;5083001;28;20419;-57
2023/12/21 06:59:50;;;;;;;4.72;1.90;;;;;;;2.38;100.00;97338.22;5075241;28;20491;-56
2023/12/21 07:02:16;;;;;;;3.95;1.98;;;;;;;2.49;100.00;97343.75;5080609;28;20468;-56
2023/12/21 07:04:42;;;;;;;0.68;0.60;;;;;;;2.53;100.00;97344.47;5081579;28;20048;-56
2023/12/21 07:07:08;;;;;;;2.20;0.85;;;;;;;2.43;100.00;97338.88;5067039;28;20094;-58
2023/12/21 07:09:34;;;;;;;3.25;1.50;;;;;;;2.17;100.00;97299.75;5081394;28;20043;-57
2023/12/21 07:12:00;;;;;;;1.77;0.98;;;;;;;2.40;100.00;97344.13;5081772;28;20113;-56
2023/12/21 07:14:26;;;;;;;1.88;0.90;;;;;;;2.41;100.00;97332.94;5077838;28;20136;-58
2023/12/21 07:16:52;;;;;;;3.88;1.02;;;;;;;2.47;100.00;97339.56;5074146;28;20123;-58
2023/12/21 07:19:18;;;;;;;1.50;1.20;;;;;;;2.46;100.00;97341.28;5084100;28;20040;-57
2023/12/21 07:21:44;;;;;;;1.77;1.00;;;;;;;2.38;100.00;97338.22;5077619;28;20054;-57
2023/12/21 07:24:10;;;;;;;1.73;1.02;;;;;;;2.24;100.00;97329.41;5069935;28;20048;-54
2023/12/21 07:26:35;;;;;;;1.60;1.10;;;;;;;2.36;100.00;97345.13;5074635;28;20565;-58
2023/12/21 07:29:01;;;;;;;2.58;1.23;;;;;;;2.51;100.00;97364.22;5065304;28;20044;-56
2023/12/21 07:31:27;;;;;;;2.28;1.30;;;;;;;2.46;100.00;97369.50;5064414;28;20044;-59
2023/12/21 07:33:53;;;;;;;3.92;1.73;;;;;;;2.36;100.00;97354.53;5078182;28;20039;-55
2023/12/21 07:36:19;;;;;;;4.63;1.52;;;;;;;2.41;100.00;97368.00;5075413;28;20046;-54
2023/12/21 07:38:45;;;;;;;2.78;1.30;;;;;;;2.09;100.00;97312.88;5072824;28;20035;-58
2023/12/21 07:41:12;;;;;;;7.80;1.58;;;;;;;2.44;100.00;97370.47;5074239;28;20071;-59
2023/12/21 07:43:38;;;;;;;1.13;0.55;;;;;;;2.46;100.00;97373.81;5073032;28;20110;-54
2023/12/21 07:46:05;;;;;;;2.88;1.17;;;;;;;2.45;100.00;97379.84;5074347;28;20130;-56
2023/12/21 07:48:32;;;;;;;1.50;0.73;;;;;;;2.28;100.00;97359.13;5075209;28;20424;-57
2023/12/21 07:50:58;;;;;;;2.42;1.20;;;;;;;2.41;100.00;97397.03;5073361;28;20828;-56
2023/12/21 07:53:23;;;;;;;3.38;2.08;;;;;;;2.38;100.00;97381.78;5067216;28;20079;-57
2023/12/21 07:55:49;;;;;;;3.17;1.65;;;;;;;2.33;100.00;97393.94;5072010;28;20044;-55
2023/12/21 07:58:15;;;;;;;6.38;2.00;;;;;;;2.35;100.00;97386.22;5076640;28;20036;-55
2023/12/21 08:00:41;;;;;;;6.00;2.40;;;;;;;2.37;100.00;97387.81;5088287;28;20051;-55
2023/12/21 08:03:08;;;;;;;5.03;1.83;;;;;;;2.18;100.00;97356.09;5073414;28;20040;-53
2023/12/21 08:05:34;;;;;;;5.05;2.08;;;;;;;2.31;100.00;97397.44;5074766;28;20055;-52
2023/12/21 08:07:59;;;;;;;7.35;2.28;;;;;;;2.28;100.00;97389.91;5075089;28;20424;-52
2023/12/21 08:10:26;;;;;;;4.03;1.50;;;;;;;2.14;100.00;97382.75;5075367;28;20525;-53
2023/12/21 08:12:52;;;;;;;2.60;1.38;;;;;;;2.22;100.00;97390.13;5075396;28;20040;-57
2023/12/21 08:15:17;;;;;;;3.60;1.73;;;;;;;2.21;100.00;97396.97;5071432;28;20044;-57
2023/12/21 08:17:44;;;;;;;1.05;0.80;;;;;;;2.24;100.00;97396.03;5077519;28;20500;-54
2023/12/21 08:20:12;;;;;;;2.08;1.27;;;;;;;2.02;100.00;97381.47;5069152;28;20051;-53
2023/12/21 08:22:38;;;;;;;2.72;1.50;;;;;;;2.23;100.00;97412.31;5071941;28;20064;-54
2023/12/21 08:25:04;;;;;;;7.80;1.67;;;;;;;2.25;100.00;97402.84;5073526;28;20135;-55
2023/12/21 08:27:30;;;;;;;1.83;1.00;;;;;;;2.24;100.00;97409.69;5072818;28;20045;-55
2023/12/21 08:29:56;;;;;;;5.25;2.45;;;;;;;2.22;100.00;97414.03;5075784;28;20512;-53
2023/12/21 08:32:22;;;;;;;4.15;1.73;;;;;;;2.22;100.00;97414.03;5069292;28;20100;-58
2023/12/21 08:34:48;;;;;;;4.40;2.00;;;;;;;2.23;100.00;97410.56;5075108;28;20592;-56
2023/12/21 08:37:14;;;;;;;1.83;1.02;;;;;;;2.18;100.00;97398.81;5072864;28;20037;-59
2023/12/21 08:39:40;;;;;;;3.80;1.80;;;;;;;2.30;100.00;97412.03;5073164;28;20033;-60
2023/12/21 08:42:08;;;;;;;3.55;1.60;;;;;;;2.35;100.00;97414.41;5085971;28;20055;-59
2023/12/21 08:44:37;;;;;;;3.17;1.50;;;;;;;2.22;100.00;97390.97;5083965;28;20040;-61
2023/12/21 08:47:05;;;;;;;2.70;1.50;;;;;;;2.39;100.00;97421.09;5069063;28;20135;-60
2023/12/21 08:49:31;;;;;;;4.75;1.48;;;;;;;2.32;100.00;97407.66;5082976;28;20132;-61
2023/12/21 08:51:56;;;;;;;3.92;1.60;;;;;;;2.42;100.00;97411.53;5086425;28;20075;-61
2023/12/21 08:54:22;;;;;;;3.33;1.35;;;;;;;2.44;100.00;97420.03;5081007;28;20032;-61
2023/12/21 08:56:50;;;;;;;5.50;1.50;;;;;;;2.31;100.00;97385.47;5075000;28;20032;-62
2023/12/21 08:59:17;;;;;;;2.88;1.60;;;;;;;2.59;100.00;97412.63;5081178;28;20048;-57
2023/12/21 09:01:43;;;;;;;1.67;1.05;;;;;;;2.66;100.00;97411.50;5080696;28;20043;-60
2023/12/21 09:04:10;;;;;;;2.15;1.35;;;;;;;2.65;100.00;97405.53;5064236;28;20515;-62
2023/12/21 09:06:35;;;;;;;4.35;1.75;;;;;;;2.52;100.00;97379.53;5074117;28;20047;-61
2023/12/21 09:09:02;;;;;;;6.32;2.22;;;;;;;2.50;100.00;97390.75;5074814;28;20044;-60
2023/12/21 09:11:28;;;;;;;2.97;1.58;;;;;;;2.74;100.00;97432.53;5080363;28;20046;-62
2023/12/21 09:13:58;;;;;;;6.18;2.58;;;;;;;2.78;100.00;97427.22;5081270;28;20036;-61
2023/12/21 09:16:24;;;;;;;3.90;1.90;;;;;;;2.72;100.00;97418.97;5080786;28;20423;-60
2023/12/21 09:18:52;;;;;;;3.67;1.33;;;;;;;2.73;100.00;97415.47;5085279;28;20038;-61
2023/12/21 09:21:18;;;;;;;3.67;2.00;;;;;;;2.71;100.00;97407.03;5082170;28;20138;-62
2023/12/21 09:23:44;;;;;;;2.15;1.63;;;;;;;2.64;100.00;97375.66;5079951;28;20127;-64
2023/12/21 09:26:10;;;;;;;2.80;1.95;;;;;;;2.86;100.00;97419.25;5060969;28;20516;-61
2023/12/21 09:28:37;;;;;;;4.72;1.50;;;;;;;2.85;100.00;97422.69;5060349;28;20514;-61
2023/12/21 09:31:07;;;;;;;1.08;0.80;;;;;;;2.89;100.00;97419.94;5076922;28;20075;-56
2023/12/21 09:33:34;;;;;;;2.83;1.42;;;;;;;2.84;100.00;97415.88;5077134;28;20077;-60
2023/12/21 09:36:05;;;;;;;3.25;1.52;;;;;;;2.81;100.00;97426.28;5075900;28;20043;-60
2023/12/21 09:38:31;;;;;;;3.28;1.63;;;;;;;2.75;100.00;97440.19;5077449;28;20094;-59
2023/12/21 09:40:58;;;;;;;2.85;1.40;;;;;;;2.66;100.00;97448.25;5082582;28;20108;-59
2023/12/21 09:43:24;;;;;;;2.47;1.38;;;;;;;2.67;100.00;97449.91;5072649;28;20155;-58
2023/12/21 09:45:54;;;;;;;4.25;2.08;;;;;;;2.62;99.84;97441.53;5085868;28;20040;-59
2023/12/21 09:48:23;;;;;;;3.67;1.75;;;;;;;2.45;100.00;97408.88;5073464;28;20147;-57
2023/12/21 09:50:49;;;;;;;1.08;0.85;;;;;;;2.68;99.77;97451.56;5058203;28;20048;-59
2023/12/21 09:53:21;;;;;;;1.27;1.10;;;;;;;2.69;99.11;97442.97;5071671;28;20534;-58
2023/12/21 09:55:48;;;;;;;2.83;1.42;;;;;;;2.75;99.16;97460.72;5069717;28;20040;-58
2023/12/21 09:58:15;;;;;;;2.08;1.05;;;;;;;2.74;98.72;97456.47;5088292;28;20094;-53
2023/12/21 10:00:41;;;;;;;4.15;1.25;;;;;;;2.68;97.86;97441.31;5053729;28;20032;-58
2023/12/21 10:03:07;;;;;;;1.15;0.77;;;;;;;2.66;95.89;97455.94;5071837;28;20039;-58
2023/12/21 10:05:34;;;;;;;4.15;0.90;;;;;;;2.72;95.35;97458.25;5073081;28;20079;-59
2023/12/21 10:08:00;;;;;;;1.67;0.75;;;;;;;2.43;93.61;97404.69;5071863;28;20095;-58
2023/12/21 10:10:26;;;;;;;1.23;0.85;;;;;;;2.65;93.74;97436.31;5090876;28;20036;-59
2023/12/21 10:12:52;;;;;;;2.05;0.80;;;;;;;2.55;93.82;97402.50;5072265;28;20042;-56
2023/12/21 10:15:19;;;;;;;1.27;0.80;;;;;;;2.71;92.99;97446.34;5065165;28;20032;-56
2023/12/21 10:17:46;;;;;;;1.55;0.75;;;;;;;2.71;91.84;97428.38;5076195;28;20044;-59
2023/12/21 10:20:12;;;;;;;1.10;0.75;;;;;;;2.74;91.03;97437.66;5070447;28;20036;-60
2023/12/21 10:22:43;;;;;;;2.17;1.02;;;;;;;2.73;90.47;97439.41;5070586;28;20055;-59
2023/12/21 10:25:10;;;;;;;2.70;1.02;;;;;;;2.81;89.39;97444.25;5055889;28;20035;-60
2023/12/21 10:27:36;;;;;;;6.10;1.00;;;;;;;2.34;88.74;97366.59;5072322;28;20482;-61
2023/12/21 10:30:03;;;;;;;1.15;0.60;;;;;;;2.70;87.32;97431.00;5075307;28;20463;-60
2023/12/21 10:32:32;;;;;;;1.10;0.50;;;;;;;2.73;87.17;97418.03;5082065;28;20051;-59
2023/12/21 10:34:59;;;;;;;1.80;1.05;;;;;;;2.79;87.38;97415.25;5071959;28;20414;-60
2023/12/21 10:37:25;;;;;;;2.15;1.10;;;;;;;2.82;87.40;97423.66;5051456;28;20064;-59
2023/12/21 10:39:52;;;;;;;1.38;0.82;;;;;;;2.88;87.49;97430.25;5087501;28;20044;-60
2023/12/21 10:42:19;;;;;;;2.28;1.33;;;;;;;2.87;86.45;97434.59;5076156;28;20056;-58
2023/12/21 10:44:47;;;;;;;3.45;0.80;;;;;;;2.71;85.61;97400.16;5056988;28;20040;-57
2023/12/21 10:47:15;;;;;;;4.70;1.25;;;;;;;2.98;85.16;97444.41;5077459;28;20040;-59
2023/12/21 10:49:43;;;;;;;1.45;0.65;;;;;;;2.95;84.51;97441.97;5089993;28;20078;-59
2023/12/21 10:52:10;;;;;;;1.25;0.60;;;;;;;2.91;83.38;97446.38;5078154;28;20090;-55
2023/12/21 10:54:37;;;;;;;2.40;1.17;;;;;;;2.87;82.47;97464.53;5072063;28;20036;-60
2023/12/21 10:57:04;;;;;;;1.65;0.77;;;;;;;2.83;82.88;97461.22;5059794;28;20044;-59
2023/12/21 10:59:30;;;;;;;2.85;1.30;;;;;;;2.81;82.92;97455.34;5075693;28;20036;-58
2023/12/21 11:01:56;;;;;;;1.45;1.08;;;;;;;2.90;83.10;97456.69;5063690;28;20550;-58
2023/12/21 11:04:23;;;;;;;2.75;1.30;;;;;;;2.88;82.83;97455.91;5079827;28;20101;-59
2023/12/21 11:06:49;;;;;;;2.20;1.00;;;;;;;2.80;83.04;97450.25;5077239;28;20135;-59
2023/12/21 11:09:19;;;;;;;2.08;1.05;;;;;;;2.79;82.80;97446.84;5069723;28;20040;-60
2023/12/21 11:11:48;;;;;;;3.80;1.13;;;;;;;2.78;82.95;97454.59;5074464;28;20044;-58
2023/12/21 11:14:14;;;;;;;3.40;1.67;;;;;;;2.70;83.34;97449.78;5077215;28;20044;-60
2023/12/21 11:16:46;;;;;;;2.80;1.52;;;;;;;2.72;83.88;97452.31;5076866;28;20139;-59
2023/12/21 11:19:15;;;;;;;4.32;1.73;;;;;;;2.73;84.34;97467.63;5082353;28;20128;-57
2023/12/21 11:21:41;;;;;;;2.17;1.43;;;;;;;2.68;83.80;97463.56;5068949;28;20039;-58
2023/12/21 11:24:07;;;;;;;2.60;1.65;;;;;;;2.62;83.18;97458.69;5082970;28;20054;-60
2023/12/21 11:26:33;;;;;;;2.88;1.60;;;;;;;2.64;83.46;97456.88;5085604;28;20036;-54
2023/12/21 11:29:05;;;;;;;2.10;1.50;;;;;;;2.63;83.50;97453.47;5082297;28;20036;-60
2023/12/21 11:31:38;;;;;;;3.70;1.67;;;;;;;2.64;83.39;97459.44;5070523;28;20397;-59
2023/12/21 11:34:16;;;;;;;3.15;1.52;;;;;;;2.72;83.42;97453.13;5080787;28;20040;-61